Moosomin, Canada
Current Conditions -  °F | °C
As of 11:00 PM on Tuesday 25 Nov 2014 (Local Time) from CYBR Reporting Station
Broken Clouds Broken Clouds  
Wind Chill: -15°   Ceiling: 10000
Heat Index: -4°   Visibility: 15mi
Dew Point: -8°   Wind: 5mph
Humidity: 85%   Direction: 30°NNE
Pressure: 30.24"   Gusts: NA
Location:  50.15°N, 101.67°W
Report Text: CYBR 260500Z 03004KT 15SM FEW020 BKN100 M20/M22 A3024 RMK SC1AC7 SC TR SLP280
Loading
Personal Weather Stations






























Interactive Weather Map New forecast layout! Learn more

10-Day Weather Forecast

Advertisements
Track Severe Weather on mobile